Bolivar, OH (44612)

5:06 PM EDT on August 30, 2014 (GMT -0400)
GET | Change Station
CLOSE
Current Station
Personal Weather Station
Location: Strasburg, OH
Elevation: 980 ft
Nearby Weather Stations

Elev 980 ft 40.63 °N, 81.53 °W | Updated 1 minute ago

Partly Cloudy
Partly Cloudy
86.9 °F
Feels Like 95 °F
N
5.0
Wind Variable Wind from SW
Gusts 6.0 mph

Today
High -- | Low -- °F
--% Chance of Precip.
Yesterday
High -- | Low -- °F
Precip. -- in
6:50 AM 8:01 PM
Waxing Crescent, 24% visible
Pressure 30.01 in
Visibility 10.0 miles
Clouds Few 6000 ft
Heat Index 95 °F
Dew Point 74 °F
Humidity 65%
Rainfall 0.00 in
Snow Depth Not available.
UV 4 out of 12
Pollen 10.70 out of 12
Air Quality Not available.
Flu Activity Not available.
METAR KPHD 302053Z AUTO 21007KT 10SM FEW060 29/20 A3003 RMK AO2 SLP162 T02940200 56013

More Conditions Fewer Conditions

Pressure 30.01 in
Visibility 10.0 miles
Clouds Few 6000 ft
Heat Index 95 °F
Dew Point 74 °F
Humidity 65%
Rainfall 0.00 in
Snow Depth Not available.
UV 4 out of 12
Pollen 10.70 out of 12
Air Quality Not available.
Flu Activity Not available.
METAR KPHD 302053Z AUTO 21007KT 10SM FEW060 29/20 A3003 RMK AO2 SLP162 T02940200 56013

More Conditions Fewer Conditions

10-Day Weather Forecast

Almanac

Astronomy

Aug. 30, 2014 Rise Set
Actual Time 6:50 AM EDT 8:01 PM EDT
Civil Twilight 6:22 AM EDT 8:29 PM EDT
Nautical Twilight 5:48 AM EDT 9:02 PM EDT
Astronomical Twilight 5:13 AM EDT 9:37 PM EDT
Moon 11:38 AM EDT 10:32 PM EDT
Length of Visible Light 14h 06m
Length of Day
13h 10m
Tomorrow will be 2m 35s shorter.
Waxing Crescent, 24% of the Moon is Illuminated
Today
Waxing Crescent
Sep 2
First Quarter
Sep 8
Full
Sep 15
Last Quarter
Sep 24
New

Today's Extremes

State Highs State Lows

Community

WunderPhotos

Upload Photos

1,748,627 photos uploaded!

WunderBlogs® & News

Nearby

Snow Depth

Station Depth Elevation
No new snow has been reported.

Earthquake Activity

City Distance Mag. Time & Date
No recent earthquake activity has been reported nearby.
Minimum magnitude displayed is 2.5.

Coastal Water Temperatures

Place Temperature
No Stations Reporting

Nearby Weather Stations